sensor_id;sensor_type;location;lat;lon;timestamp;P1;durP1;ratioP1;P2;durP2;ratioP2
63217;SDS011;49314;48.278;16.378;2023-05-21T00:01:00;18.85;;;17.35;;
63217;SDS011;49314;48.278;16.378;2023-05-21T00:03:27;20.20;;;18.50;;
63217;SDS011;49314;48.278;16.378;2023-05-21T00:05:54;19.35;;;17.70;;
63217;SDS011;49314;48.278;16.378;2023-05-21T00:08:19;20.67;;;18.77;;
63217;SDS011;49314;48.278;16.378;2023-05-21T00:10:45;19.17;;;17.60;;
63217;SDS011;49314;48.278;16.378;2023-05-21T00:13:10;20.63;;;18.83;;
63217;SDS011;49314;48.278;16.378;2023-05-21T00:15:35;19.42;;;17.83;;
63217;SDS011;49314;48.278;16.378;2023-05-21T00:18:01;20.13;;;18.42;;
63217;SDS011;49314;48.278;16.378;2023-05-21T00:20:26;22.13;;;20.20;;
63217;SDS011;49314;48.278;16.378;2023-05-21T00:22:53;20.15;;;18.42;;
63217;SDS011;49314;48.278;16.378;2023-05-21T00:25:18;21.02;;;18.83;;
63217;SDS011;49314;48.278;16.378;2023-05-21T00:27:44;21.20;;;19.50;;
63217;SDS011;49314;48.278;16.378;2023-05-21T00:30:09;20.88;;;18.98;;
63217;SDS011;49314;48.278;16.378;2023-05-21T00:32:34;21.02;;;19.20;;
63217;SDS011;49314;48.278;16.378;2023-05-21T00:35:00;19.40;;;17.65;;
63217;SDS011;49314;48.278;16.378;2023-05-21T00:37:26;21.08;;;19.35;;
63217;SDS011;49314;48.278;16.378;2023-05-21T00:39:58;19.83;;;18.10;;
63217;SDS011;49314;48.278;16.378;2023-05-21T00:42:23;19.73;;;17.92;;
63217;SDS011;49314;48.278;16.378;2023-05-21T00:44:51;20.00;;;18.30;;
63217;SDS011;49314;48.278;16.378;2023-05-21T00:47:18;20.35;;;18.77;;
63217;SDS011;49314;48.278;16.378;2023-05-21T00:49:45;21.60;;;19.80;;
63217;SDS011;49314;48.278;16.378;2023-05-21T00:52:12;19.58;;;17.85;;
63217;SDS011;49314;48.278;16.378;2023-05-21T00:54:37;20.35;;;18.55;;
63217;SDS011;49314;48.278;16.378;2023-05-21T00:57:03;22.02;;;20.23;;
63217;SDS011;49314;48.278;16.378;2023-05-21T00:59:28;21.88;;;19.98;;
63217;SDS011;49314;48.278;16.378;2023-05-21T01:01:55;21.42;;;19.70;;
63217;SDS011;49314;48.278;16.378;2023-05-21T01:04:23;21.08;;;19.17;;
63217;SDS011;49314;48.278;16.378;2023-05-21T01:06:48;19.00;;;17.15;;
63217;SDS011;49314;48.278;16.378;2023-05-21T01:09:14;21.70;;;19.83;;
63217;SDS011;49314;48.278;16.378;2023-05-21T01:11:41;21.65;;;19.75;;
63217;SDS011;49314;48.278;16.378;2023-05-21T01:14:07;22.95;;;21.05;;
63217;SDS011;49314;48.278;16.378;2023-05-21T01:16:38;19.67;;;18.08;;
63217;SDS011;49314;48.278;16.378;2023-05-21T01:19:04;21.48;;;19.70;;
63217;SDS011;49314;48.278;16.378;2023-05-21T01:21:29;21.73;;;19.67;;
63217;SDS011;49314;48.278;16.378;2023-05-21T01:23:55;21.73;;;19.98;;
63217;SDS011;49314;48.278;16.378;2023-05-21T01:26:20;20.02;;;18.30;;
63217;SDS011;49314;48.278;16.378;2023-05-21T01:28:45;20.98;;;19.17;;
63217;SDS011;49314;48.278;16.378;2023-05-21T01:31:15;21.73;;;19.92;;
63217;SDS011;49314;48.278;16.378;2023-05-21T01:33:44;20.73;;;19.00;;
63217;SDS011;49314;48.278;16.378;2023-05-21T01:36:12;21.23;;;19.33;;
63217;SDS011;49314;48.278;16.378;2023-05-21T01:41:06;22.23;;;20.13;;
63217;SDS011;49314;48.278;16.378;2023-05-21T01:43:35;19.40;;;17.80;;
63217;SDS011;49314;48.278;16.378;2023-05-21T01:46:02;22.40;;;20.50;;
63217;SDS011;49314;48.278;16.378;2023-05-21T01:48:28;20.77;;;18.90;;
63217;SDS011;49314;48.278;16.378;2023-05-21T01:50:54;22.58;;;20.60;;
63217;SDS011;49314;48.278;16.378;2023-05-21T01:53:21;20.98;;;19.27;;
63217;SDS011;49314;48.278;16.378;2023-05-21T01:55:47;20.10;;;18.30;;
63217;SDS011;49314;48.278;16.378;2023-05-21T01:58:12;19.20;;;17.40;;
63217;SDS011;49314;48.278;16.378;2023-05-21T02:00:38;21.95;;;20.10;;
63217;SDS011;49314;48.278;16.378;2023-05-21T02:03:04;22.02;;;20.05;;
63217;SDS011;49314;48.278;16.378;2023-05-21T02:05:29;20.67;;;18.98;;
63217;SDS011;49314;48.278;16.378;2023-05-21T02:07:54;19.08;;;17.38;;
63217;SDS011;49314;48.278;16.378;2023-05-21T02:10:21;19.80;;;18.27;;
63217;SDS011;49314;48.278;16.378;2023-05-21T02:12:46;20.35;;;18.55;;
63217;SDS011;49314;48.278;16.378;2023-05-21T02:15:11;20.67;;;18.88;;
63217;SDS011;49314;48.278;16.378;2023-05-21T02:17:38;21.98;;;20.27;;
63217;SDS011;49314;48.278;16.378;2023-05-21T02:20:05;22.35;;;20.35;;
63217;SDS011;49314;48.278;16.378;2023-05-21T02:22:39;17.42;;;15.85;;
63217;SDS011;49314;48.278;16.378;2023-05-21T02:25:05;21.08;;;19.27;;
63217;SDS011;49314;48.278;16.378;2023-05-21T02:27:32;20.13;;;18.52;;
63217;SDS011;49314;48.278;16.378;2023-05-21T02:29:59;22.95;;;20.98;;
63217;SDS011;49314;48.278;16.378;2023-05-21T02:32:24;21.77;;;19.83;;
63217;SDS011;49314;48.278;16.378;2023-05-21T02:34:49;19.63;;;18.07;;
63217;SDS011;49314;48.278;16.378;2023-05-21T02:37:15;20.80;;;19.15;;
63217;SDS011;49314;48.278;16.378;2023-05-21T02:39:41;20.30;;;18.67;;
63217;SDS011;49314;48.278;16.378;2023-05-21T02:42:06;21.57;;;19.53;;
63217;SDS011;49314;48.278;16.378;2023-05-21T02:44:31;20.67;;;18.77;;
63217;SDS011;49314;48.278;16.378;2023-05-21T02:46:57;21.70;;;19.90;;
63217;SDS011;49314;48.278;16.378;2023-05-21T02:49:22;20.83;;;18.73;;
63217;SDS011;49314;48.278;16.378;2023-05-21T02:51:47;20.63;;;18.87;;
63217;SDS011;49314;48.278;16.378;2023-05-21T02:54:13;22.65;;;20.65;;
63217;SDS011;49314;48.278;16.378;2023-05-21T02:56:38;21.63;;;19.92;;
63217;SDS011;49314;48.278;16.378;2023-05-21T02:59:03;21.67;;;19.67;;
63217;SDS011;49314;48.278;16.378;2023-05-21T03:01:29;21.58;;;19.70;;
63217;SDS011;49314;48.278;16.378;2023-05-21T03:03:54;21.92;;;20.10;;
63217;SDS011;49314;48.278;16.378;2023-05-21T03:06:19;21.35;;;19.48;;
63217;SDS011;49314;48.278;16.378;2023-05-21T03:08:44;21.73;;;19.87;;
63217;SDS011;49314;48.278;16.378;2023-05-21T03:11:10;21.38;;;19.70;;
63217;SDS011;49314;48.278;16.378;2023-05-21T03:13:35;22.27;;;20.42;;
63217;SDS011;49314;48.278;16.378;2023-05-21T03:16:00;22.50;;;19.80;;
63217;SDS011;49314;48.278;16.378;2023-05-21T03:18:25;21.77;;;19.77;;
63217;SDS011;49314;48.278;16.378;2023-05-21T03:20:51;22.33;;;19.97;;
63217;SDS011;49314;48.278;16.378;2023-05-21T03:23:16;20.58;;;18.60;;
63217;SDS011;49314;48.278;16.378;2023-05-21T03:25:42;23.52;;;21.60;;
63217;SDS011;49314;48.278;16.378;2023-05-21T03:28:07;20.23;;;18.52;;
63217;SDS011;49314;48.278;16.378;2023-05-21T03:30:34;21.52;;;19.63;;
63217;SDS011;49314;48.278;16.378;2023-05-21T03:33:00;19.77;;;18.08;;
63217;SDS011;49314;48.278;16.378;2023-05-21T03:35:27;21.35;;;19.55;;
63217;SDS011;49314;48.278;16.378;2023-05-21T03:37:52;19.60;;;17.77;;
63217;SDS011;49314;48.278;16.378;2023-05-21T03:40:17;21.52;;;19.63;;
63217;SDS011;49314;48.278;16.378;2023-05-21T03:42:43;20.90;;;19.10;;
63217;SDS011;49314;48.278;16.378;2023-05-21T03:45:08;21.90;;;19.77;;
63217;SDS011;49314;48.278;16.378;2023-05-21T03:47:33;22.83;;;21.02;;
63217;SDS011;49314;48.278;16.378;2023-05-21T03:50:00;21.48;;;19.73;;
63217;SDS011;49314;48.278;16.378;2023-05-21T03:52:25;20.38;;;18.35;;
63217;SDS011;49314;48.278;16.378;2023-05-21T03:54:50;20.87;;;19.20;;
63217;SDS011;49314;48.278;16.378;2023-05-21T03:57:15;21.08;;;19.23;;
63217;SDS011;49314;48.278;16.378;2023-05-21T03:59:41;22.27;;;20.17;;
63217;SDS011;49314;48.278;16.378;2023-05-21T04:02:06;20.50;;;18.90;;
63217;SDS011;49314;48.278;16.378;2023-05-21T04:04:31;19.55;;;17.85;;
63217;SDS011;49314;48.278;16.378;2023-05-21T04:06:57;23.63;;;21.33;;
63217;SDS011;49314;48.278;16.378;2023-05-21T04:09:23;22.70;;;20.75;;
63217;SDS011;49314;48.278;16.378;2023-05-21T04:11:48;23.48;;;21.40;;
63217;SDS011;49314;48.278;16.378;2023-05-21T04:14:14;24.98;;;22.83;;
63217;SDS011;49314;48.278;16.378;2023-05-21T04:16:39;22.38;;;20.58;;
63217;SDS011;49314;48.278;16.378;2023-05-21T04:19:07;23.80;;;21.67;;
63217;SDS011;49314;48.278;16.378;2023-05-21T04:21:33;24.60;;;22.10;;
63217;SDS011;49314;48.278;16.378;2023-05-21T04:23:58;27.17;;;24.85;;
63217;SDS011;49314;48.278;16.378;2023-05-21T04:26:24;24.35;;;22.30;;
63217;SDS011;49314;48.278;16.378;2023-05-21T04:28:50;25.23;;;23.10;;
63217;SDS011;49314;48.278;16.378;2023-05-21T04:31:15;26.60;;;24.27;;
63217;SDS011;49314;48.278;16.378;2023-05-21T04:33:40;24.92;;;22.63;;
63217;SDS011;49314;48.278;16.378;2023-05-21T04:36:06;22.35;;;20.35;;
63217;SDS011;49314;48.278;16.378;2023-05-21T04:38:33;21.90;;;19.95;;
63217;SDS011;49314;48.278;16.378;2023-05-21T04:41:01;20.88;;;18.98;;
63217;SDS011;49314;48.278;16.378;2023-05-21T04:43:28;19.70;;;18.08;;
63217;SDS011;49314;48.278;16.378;2023-05-21T04:45:53;21.33;;;19.42;;
63217;SDS011;49314;48.278;16.378;2023-05-21T04:48:22;21.20;;;19.20;;
63217;SDS011;49314;48.278;16.378;2023-05-21T04:50:53;19.15;;;17.52;;
63217;SDS011;49314;48.278;16.378;2023-05-21T04:53:20;17.92;;;16.52;;
63217;SDS011;49314;48.278;16.378;2023-05-21T04:55:45;20.67;;;18.83;;
63217;SDS011;49314;48.278;16.378;2023-05-21T04:58:11;23.90;;;21.73;;
63217;SDS011;49314;48.278;16.378;2023-05-21T05:00:36;21.17;;;19.20;;
63217;SDS011;49314;48.278;16.378;2023-05-21T05:03:02;21.92;;;20.10;;
63217;SDS011;49314;48.278;16.378;2023-05-21T05:05:27;18.92;;;17.27;;
63217;SDS011;49314;48.278;16.378;2023-05-21T05:07:52;18.08;;;16.58;;
63217;SDS011;49314;48.278;16.378;2023-05-21T05:10:18;18.40;;;16.83;;
63217;SDS011;49314;48.278;16.378;2023-05-21T05:12:43;17.65;;;16.15;;
63217;SDS011;49314;48.278;16.378;2023-05-21T05:15:08;16.90;;;15.50;;
63217;SDS011;49314;48.278;16.378;2023-05-21T05:17:33;16.23;;;14.75;;
63217;SDS011;49314;48.278;16.378;2023-05-21T05:19:59;15.85;;;14.20;;
63217;SDS011;49314;48.278;16.378;2023-05-21T05:22:24;17.65;;;14.43;;
63217;SDS011;49314;48.278;16.378;2023-05-21T05:24:50;15.60;;;14.20;;
63217;SDS011;49314;48.278;16.378;2023-05-21T05:27:15;16.23;;;14.90;;
63217;SDS011;49314;48.278;16.378;2023-05-21T05:29:42;15.20;;;13.88;;
63217;SDS011;49314;48.278;16.378;2023-05-21T05:32:07;14.23;;;13.02;;
63217;SDS011;49314;48.278;16.378;2023-05-21T05:34:33;14.50;;;13.30;;
63217;SDS011;49314;48.278;16.378;2023-05-21T05:36:58;14.57;;;13.47;;
63217;SDS011;49314;48.278;16.378;2023-05-21T05:39:23;14.13;;;12.82;;
63217;SDS011;49314;48.278;16.378;2023-05-21T05:41:48;13.03;;;11.77;;
63217;SDS011;49314;48.278;16.378;2023-05-21T05:44:14;13.52;;;12.27;;
63217;SDS011;49314;48.278;16.378;2023-05-21T05:46:39;14.60;;;13.20;;
63217;SDS011;49314;48.278;16.378;2023-05-21T05:49:04;12.32;;;11.23;;
63217;SDS011;49314;48.278;16.378;2023-05-21T05:51:30;13.15;;;11.95;;
63217;SDS011;49314;48.278;16.378;2023-05-21T05:53:55;14.05;;;12.85;;
63217;SDS011;49314;48.278;16.378;2023-05-21T05:56:20;13.93;;;12.68;;
63217;SDS011;49314;48.278;16.378;2023-05-21T05:58:46;13.32;;;11.93;;
63217;SDS011;49314;48.278;16.378;2023-05-21T06:01:11;12.13;;;11.18;;
63217;SDS011;49314;48.278;16.378;2023-05-21T06:03:37;12.25;;;11.25;;
63217;SDS011;49314;48.278;16.378;2023-05-21T06:06:02;12.97;;;11.77;;
63217;SDS011;49314;48.278;16.378;2023-05-21T06:08:27;12.40;;;11.33;;
63217;SDS011;49314;48.278;16.378;2023-05-21T06:10:53;13.67;;;12.37;;
63217;SDS011;49314;48.278;16.378;2023-05-21T06:13:18;13.67;;;12.67;;
63217;SDS011;49314;48.278;16.378;2023-05-21T06:15:43;12.40;;;11.30;;
63217;SDS011;49314;48.278;16.378;2023-05-21T06:18:08;13.10;;;11.73;;
63217;SDS011;49314;48.278;16.378;2023-05-21T06:20:34;12.50;;;11.50;;
63217;SDS011;49314;48.278;16.378;2023-05-21T06:22:59;12.30;;;11.25;;
63217;SDS011;49314;48.278;16.378;2023-05-21T06:25:25;11.85;;;10.75;;
63217;SDS011;49314;48.278;16.378;2023-05-21T06:27:50;10.90;;;10.00;;
63217;SDS011;49314;48.278;16.378;2023-05-21T06:30:16;11.83;;;10.83;;
63217;SDS011;49314;48.278;16.378;2023-05-21T06:32:41;11.10;;;10.20;;
63217;SDS011;49314;48.278;16.378;2023-05-21T06:35:07;11.02;;;9.95;;
63217;SDS011;49314;48.278;16.378;2023-05-21T06:37:32;10.93;;;9.93;;
63217;SDS011;49314;48.278;16.378;2023-05-21T06:39:58;11.07;;;10.03;;
63217;SDS011;49314;48.278;16.378;2023-05-21T06:42:23;10.50;;;9.50;;
63217;SDS011;49314;48.278;16.378;2023-05-21T06:44:48;11.10;;;9.63;;
63217;SDS011;49314;48.278;16.378;2023-05-21T06:47:13;8.90;;;8.20;;
63217;SDS011;49314;48.278;16.378;2023-05-21T06:49:38;10.17;;;9.37;;
63217;SDS011;49314;48.278;16.378;2023-05-21T06:52:04;10.43;;;9.20;;
63217;SDS011;49314;48.278;16.378;2023-05-21T06:54:29;10.95;;;9.95;;
63217;SDS011;49314;48.278;16.378;2023-05-21T06:56:54;12.40;;;9.43;;
63217;SDS011;49314;48.278;16.378;2023-05-21T06:59:20;9.30;;;8.63;;
63217;SDS011;49314;48.278;16.378;2023-05-21T07:01:45;9.30;;;8.60;;
63217;SDS011;49314;48.278;16.378;2023-05-21T07:04:10;10.13;;;9.32;;
63217;SDS011;49314;48.278;16.378;2023-05-21T07:06:36;10.17;;;9.03;;
63217;SDS011;49314;48.278;16.378;2023-05-21T07:09:02;9.35;;;8.60;;
63217;SDS011;49314;48.278;16.378;2023-05-21T07:11:27;9.25;;;8.38;;
63217;SDS011;49314;48.278;16.378;2023-05-21T07:13:53;10.68;;;9.57;;
63217;SDS011;49314;48.278;16.378;2023-05-21T07:16:19;9.10;;;8.35;;
63217;SDS011;49314;48.278;16.378;2023-05-21T07:18:44;10.07;;;9.10;;
63217;SDS011;49314;48.278;16.378;2023-05-21T07:21:10;11.55;;;9.63;;
63217;SDS011;49314;48.278;16.378;2023-05-21T07:23:36;9.87;;;8.87;;
63217;SDS011;49314;48.278;16.378;2023-05-21T07:26:01;10.33;;;9.40;;
63217;SDS011;49314;48.278;16.378;2023-05-21T07:28:26;9.17;;;8.43;;
63217;SDS011;49314;48.278;16.378;2023-05-21T07:30:51;10.77;;;9.20;;
63217;SDS011;49314;48.278;16.378;2023-05-21T07:33:17;9.93;;;9.07;;
63217;SDS011;49314;48.278;16.378;2023-05-21T07:35:44;8.27;;;7.57;;
63217;SDS011;49314;48.278;16.378;2023-05-21T07:38:09;10.00;;;8.90;;
63217;SDS011;49314;48.278;16.378;2023-05-21T07:40:35;10.43;;;9.63;;
63217;SDS011;49314;48.278;16.378;2023-05-21T07:43:00;9.70;;;8.73;;
63217;SDS011;49314;48.278;16.378;2023-05-21T07:45:25;9.50;;;8.47;;
63217;SDS011;49314;48.278;16.378;2023-05-21T07:47:51;9.27;;;8.40;;
63217;SDS011;49314;48.278;16.378;2023-05-21T07:50:16;9.97;;;8.43;;
63217;SDS011;49314;48.278;16.378;2023-05-21T07:52:41;9.38;;;8.68;;
63217;SDS011;49314;48.278;16.378;2023-05-21T07:55:07;9.67;;;8.87;;
63217;SDS011;49314;48.278;16.378;2023-05-21T07:57:33;10.35;;;8.90;;
63217;SDS011;49314;48.278;16.378;2023-05-21T07:59:59;8.90;;;8.13;;
63217;SDS011;49314;48.278;16.378;2023-05-21T08:02:24;8.60;;;7.80;;
63217;SDS011;49314;48.278;16.378;2023-05-21T08:04:49;8.80;;;8.03;;
63217;SDS011;49314;48.278;16.378;2023-05-21T08:07:16;9.10;;;8.40;;
63217;SDS011;49314;48.278;16.378;2023-05-21T08:09:43;9.00;;;8.30;;
63217;SDS011;49314;48.278;16.378;2023-05-21T08:12:09;8.48;;;7.70;;
63217;SDS011;49314;48.278;16.378;2023-05-21T08:14:34;9.90;;;8.95;;
63217;SDS011;49314;48.278;16.378;2023-05-21T08:16:59;13.20;;;9.17;;
63217;SDS011;49314;48.278;16.378;2023-05-21T08:19:25;8.90;;;8.20;;
63217;SDS011;49314;48.278;16.378;2023-05-21T08:21:50;9.13;;;7.97;;
63217;SDS011;49314;48.278;16.378;2023-05-21T08:24:15;7.63;;;7.03;;
63217;SDS011;49314;48.278;16.378;2023-05-21T08:26:41;8.20;;;7.55;;
63217;SDS011;49314;48.278;16.378;2023-05-21T08:29:07;8.38;;;7.68;;
63217;SDS011;49314;48.278;16.378;2023-05-21T08:31:33;9.07;;;7.80;;
63217;SDS011;49314;48.278;16.378;2023-05-21T08:33:58;7.70;;;7.10;;
63217;SDS011;49314;48.278;16.378;2023-05-21T08:36:23;8.37;;;7.67;;
63217;SDS011;49314;48.278;16.378;2023-05-21T08:38:48;8.23;;;6.70;;
63217;SDS011;49314;48.278;16.378;2023-05-21T08:41:14;8.00;;;7.40;;
63217;SDS011;49314;48.278;16.378;2023-05-21T08:43:40;8.77;;;7.97;;
63217;SDS011;49314;48.278;16.378;2023-05-21T08:46:06;7.80;;;7.03;;
63217;SDS011;49314;48.278;16.378;2023-05-21T08:48:32;8.00;;;7.40;;
63217;SDS011;49314;48.278;16.378;2023-05-21T08:50:58;8.45;;;7.60;;
63217;SDS011;49314;48.278;16.378;2023-05-21T08:53:25;8.90;;;8.00;;
63217;SDS011;49314;48.278;16.378;2023-05-21T08:55:53;8.10;;;7.47;;
63217;SDS011;49314;48.278;16.378;2023-05-21T08:58:20;8.05;;;7.35;;
63217;SDS011;49314;48.278;16.378;2023-05-21T09:00:45;8.00;;;7.18;;
63217;SDS011;49314;48.278;16.378;2023-05-21T09:03:10;8.00;;;7.30;;
63217;SDS011;49314;48.278;16.378;2023-05-21T09:05:41;7.05;;;6.45;;
63217;SDS011;49314;48.278;16.378;2023-05-21T09:08:13;6.95;;;6.18;;
63217;SDS011;49314;48.278;16.378;2023-05-21T09:10:40;8.27;;;7.47;;
63217;SDS011;49314;48.278;16.378;2023-05-21T09:13:06;7.63;;;6.95;;
63217;SDS011;49314;48.278;16.378;2023-05-21T09:15:33;7.47;;;6.78;;
63217;SDS011;49314;48.278;16.378;2023-05-21T09:17:58;7.00;;;6.40;;
63217;SDS011;49314;48.278;16.378;2023-05-21T09:20:24;8.03;;;7.33;;
63217;SDS011;49314;48.278;16.378;2023-05-21T09:22:50;7.38;;;6.78;;
63217;SDS011;49314;48.278;16.378;2023-05-21T09:25:16;8.00;;;7.33;;
63217;SDS011;49314;48.278;16.378;2023-05-21T09:27:42;7.40;;;6.80;;
63217;SDS011;49314;48.278;16.378;2023-05-21T09:30:11;8.10;;;6.43;;
63217;SDS011;49314;48.278;16.378;2023-05-21T09:32:37;7.05;;;6.35;;
63217;SDS011;49314;48.278;16.378;2023-05-21T09:35:05;6.38;;;5.85;;
63217;SDS011;49314;48.278;16.378;2023-05-21T09:37:32;9.18;;;6.82;;
63217;SDS011;49314;48.278;16.378;2023-05-21T09:40:03;6.68;;;6.13;;
63217;SDS011;49314;48.278;16.378;2023-05-21T09:42:33;6.43;;;5.88;;
63217;SDS011;49314;48.278;16.378;2023-05-21T09:44:58;7.17;;;6.50;;
63217;SDS011;49314;48.278;16.378;2023-05-21T09:47:24;7.45;;;6.75;;
63217;SDS011;49314;48.278;16.378;2023-05-21T09:49:49;7.25;;;6.57;;
63217;SDS011;49314;48.278;16.378;2023-05-21T09:52:21;7.40;;;6.80;;
63217;SDS011;49314;48.278;16.378;2023-05-21T09:54:47;7.63;;;6.88;;
63217;SDS011;49314;48.278;16.378;2023-05-21T09:57:12;6.50;;;6.00;;
63217;SDS011;49314;48.278;16.378;2023-05-21T09:59:38;7.05;;;6.55;;
63217;SDS011;49314;48.278;16.378;2023-05-21T10:02:13;9.60;;;6.80;;
63217;SDS011;49314;48.278;16.378;2023-05-21T10:04:39;7.32;;;6.82;;
63217;SDS011;49314;48.278;16.378;2023-05-21T10:07:05;7.47;;;6.82;;
63217;SDS011;49314;48.278;16.378;2023-05-21T10:09:31;7.40;;;6.80;;
63217;SDS011;49314;48.278;16.378;2023-05-21T10:11:56;6.13;;;5.73;;
63217;SDS011;49314;48.278;16.378;2023-05-21T10:14:26;7.75;;;7.15;;
63217;SDS011;49314;48.278;16.378;2023-05-21T10:16:54;7.50;;;6.82;;
63217;SDS011;49314;48.278;16.378;2023-05-21T10:19:19;6.93;;;6.33;;
63217;SDS011;49314;48.278;16.378;2023-05-21T10:21:46;7.38;;;6.60;;
63217;SDS011;49314;48.278;16.378;2023-05-21T10:24:11;7.03;;;6.43;;
63217;SDS011;49314;48.278;16.378;2023-05-21T10:26:37;9.05;;;6.80;;
63217;SDS011;49314;48.278;16.378;2023-05-21T10:29:03;7.45;;;6.75;;
63217;SDS011;49314;48.278;16.378;2023-05-21T10:31:28;7.27;;;6.70;;
63217;SDS011;49314;48.278;16.378;2023-05-21T10:33:54;7.67;;;6.80;;
63217;SDS011;49314;48.278;16.378;2023-05-21T10:36:20;7.78;;;7.00;;
63217;SDS011;49314;48.278;16.378;2023-05-21T10:38:49;7.55;;;6.85;;
63217;SDS011;49314;48.278;16.378;2023-05-21T10:41:14;7.93;;;7.13;;
63217;SDS011;49314;48.278;16.378;2023-05-21T10:46:47;7.18;;;6.68;;
63217;SDS011;49314;48.278;16.378;2023-05-21T10:52:18;7.72;;;6.93;;
63217;SDS011;49314;48.278;16.378;2023-05-21T10:57:31;7.32;;;6.80;;
63217;SDS011;49314;48.278;16.378;2023-05-21T10:59:58;7.15;;;6.40;;
63217;SDS011;49314;48.278;16.378;2023-05-21T11:02:24;8.05;;;7.20;;
63217;SDS011;49314;48.278;16.378;2023-05-21T11:04:56;7.35;;;6.55;;
63217;SDS011;49314;48.278;16.378;2023-05-21T11:07:22;7.97;;;7.38;;
63217;SDS011;49314;48.278;16.378;2023-05-21T11:13:10;7.35;;;6.78;;
63217;SDS011;49314;48.278;16.378;2023-05-21T11:18:20;7.30;;;6.70;;
63217;SDS011;49314;48.278;16.378;2023-05-21T11:20:49;8.17;;;7.40;;
63217;SDS011;49314;48.278;16.378;2023-05-21T11:23:15;7.53;;;6.88;;
63217;SDS011;49314;48.278;16.378;2023-05-21T11:25:40;6.87;;;6.37;;
63217;SDS011;49314;48.278;16.378;2023-05-21T11:28:05;8.02;;;7.43;;
63217;SDS011;49314;48.278;16.378;2023-05-21T11:30:33;7.50;;;6.95;;
63217;SDS011;49314;48.278;16.378;2023-05-21T11:38:10;8.02;;;6.45;;
63217;SDS011;49314;48.278;16.378;2023-05-21T11:40:35;17.73;;;16.23;;
63217;SDS011;49314;48.278;16.378;2023-05-21T11:43:01;9.57;;;8.88;;
63217;SDS011;49314;48.278;16.378;2023-05-21T11:45:30;7.17;;;6.47;;
63217;SDS011;49314;48.278;16.378;2023-05-21T11:47:56;27.70;;;25.50;;
63217;SDS011;49314;48.278;16.378;2023-05-21T11:50:21;8.02;;;7.10;;
63217;SDS011;49314;48.278;16.378;2023-05-21T11:52:47;7.77;;;7.10;;
63217;SDS011;49314;48.278;16.378;2023-05-21T11:55:13;7.05;;;6.30;;
63217;SDS011;49314;48.278;16.378;2023-05-21T11:57:40;7.03;;;6.50;;
63217;SDS011;49314;48.278;16.378;2023-05-21T12:00:06;7.65;;;7.00;;
63217;SDS011;49314;48.278;16.378;2023-05-21T12:02:38;6.18;;;5.75;;
63217;SDS011;49314;48.278;16.378;2023-05-21T12:05:03;8.32;;;7.10;;
63217;SDS011;49314;48.278;16.378;2023-05-21T12:07:29;7.80;;;7.10;;
63217;SDS011;49314;48.278;16.378;2023-05-21T12:09:54;7.07;;;6.37;;
63217;SDS011;49314;48.278;16.378;2023-05-21T12:12:20;6.88;;;6.28;;
63217;SDS011;49314;48.278;16.378;2023-05-21T12:14:47;7.22;;;6.60;;
63217;SDS011;49314;48.278;16.378;2023-05-21T12:17:17;8.25;;;7.43;;
63217;SDS011;49314;48.278;16.378;2023-05-21T12:19:45;8.45;;;7.47;;
63217;SDS011;49314;48.278;16.378;2023-05-21T12:22:10;7.72;;;6.63;;
63217;SDS011;49314;48.278;16.378;2023-05-21T12:24:36;8.38;;;6.97;;
63217;SDS011;49314;48.278;16.378;2023-05-21T12:27:02;7.47;;;6.82;;
63217;SDS011;49314;48.278;16.378;2023-05-21T12:29:33;8.90;;;7.13;;
63217;SDS011;49314;48.278;16.378;2023-05-21T12:31:59;7.05;;;5.75;;
63217;SDS011;49314;48.278;16.378;2023-05-21T12:37:22;6.53;;;5.97;;
63217;SDS011;49314;48.278;16.378;2023-05-21T12:39:48;6.80;;;6.30;;
63217;SDS011;49314;48.278;16.378;2023-05-21T12:42:14;17.20;;;15.68;;
63217;SDS011;49314;48.278;16.378;2023-05-21T12:44:43;7.97;;;7.20;;
63217;SDS011;49314;48.278;16.378;2023-05-21T12:47:09;6.90;;;6.40;;
63217;SDS011;49314;48.278;16.378;2023-05-21T12:49:35;6.30;;;5.80;;
63217;SDS011;49314;48.278;16.378;2023-05-21T12:52:02;7.47;;;6.55;;
63217;SDS011;49314;48.278;16.378;2023-05-21T12:54:29;6.40;;;5.82;;
63217;SDS011;49314;48.278;16.378;2023-05-21T12:56:54;7.40;;;6.75;;
63217;SDS011;49314;48.278;16.378;2023-05-21T12:59:20;6.78;;;6.03;;
63217;SDS011;49314;48.278;16.378;2023-05-21T13:01:46;8.00;;;6.73;;
63217;SDS011;49314;48.278;16.378;2023-05-21T13:04:11;6.85;;;6.15;;
63217;SDS011;49314;48.278;16.378;2023-05-21T13:06:40;6.67;;;6.00;;
63217;SDS011;49314;48.278;16.378;2023-05-21T13:09:06;7.25;;;6.60;;
63217;SDS011;49314;48.278;16.378;2023-05-21T13:11:31;6.77;;;6.17;;
63217;SDS011;49314;48.278;16.378;2023-05-21T13:13:56;6.37;;;5.77;;
63217;SDS011;49314;48.278;16.378;2023-05-21T13:16:21;6.93;;;6.37;;
63217;SDS011;49314;48.278;16.378;2023-05-21T13:18:47;6.53;;;5.70;;
63217;SDS011;49314;48.278;16.378;2023-05-21T13:21:12;5.23;;;4.83;;
63217;SDS011;49314;48.278;16.378;2023-05-21T13:23:38;5.37;;;4.97;;
63217;SDS011;49314;48.278;16.378;2023-05-21T13:26:03;5.73;;;5.30;;
63217;SDS011;49314;48.278;16.378;2023-05-21T13:28:28;6.40;;;5.53;;
63217;SDS011;49314;48.278;16.378;2023-05-21T13:30:53;5.77;;;5.23;;
63217;SDS011;49314;48.278;16.378;2023-05-21T13:33:19;5.75;;;5.25;;
63217;SDS011;49314;48.278;16.378;2023-05-21T13:35:45;5.20;;;4.80;;
63217;SDS011;49314;48.278;16.378;2023-05-21T13:38:15;5.60;;;5.07;;
63217;SDS011;49314;48.278;16.378;2023-05-21T13:40:40;5.85;;;5.35;;
63217;SDS011;49314;48.278;16.378;2023-05-21T13:43:05;6.50;;;6.00;;
63217;SDS011;49314;48.278;16.378;2023-05-21T13:45:30;6.83;;;5.60;;
63217;SDS011;49314;48.278;16.378;2023-05-21T13:47:56;6.13;;;5.63;;
63217;SDS011;49314;48.278;16.378;2023-05-21T13:50:21;4.93;;;4.53;;
63217;SDS011;49314;48.278;16.378;2023-05-21T13:52:47;6.60;;;4.97;;
63217;SDS011;49314;48.278;16.378;2023-05-21T13:55:12;6.70;;;6.10;;
63217;SDS011;49314;48.278;16.378;2023-05-21T13:57:39;6.07;;;5.32;;
63217;SDS011;49314;48.278;16.378;2023-05-21T14:00:05;8.05;;;5.65;;
63217;SDS011;49314;48.278;16.378;2023-05-21T14:02:33;5.85;;;5.35;;
63217;SDS011;49314;48.278;16.378;2023-05-21T14:04:58;5.60;;;5.10;;
63217;SDS011;49314;48.278;16.378;2023-05-21T14:07:23;6.53;;;5.75;;
63217;SDS011;49314;48.278;16.378;2023-05-21T14:09:49;7.37;;;5.70;;
63217;SDS011;49314;48.278;16.378;2023-05-21T14:12:14;6.70;;;5.80;;
63217;SDS011;49314;48.278;16.378;2023-05-21T14:14:39;6.00;;;5.50;;
63217;SDS011;49314;48.278;16.378;2023-05-21T14:17:05;6.97;;;5.85;;
63217;SDS011;49314;48.278;16.378;2023-05-21T14:19:31;5.63;;;5.07;;
63217;SDS011;49314;48.278;16.378;2023-05-21T14:21:56;6.27;;;5.77;;
63217;SDS011;49314;48.278;16.378;2023-05-21T14:24:23;6.47;;;5.80;;
63217;SDS011;49314;48.278;16.378;2023-05-21T14:26:49;5.88;;;5.32;;
63217;SDS011;49314;48.278;16.378;2023-05-21T14:29:14;8.27;;;6.00;;
63217;SDS011;49314;48.278;16.378;2023-05-21T14:31:39;5.87;;;5.37;;
63217;SDS011;49314;48.278;16.378;2023-05-21T14:34:04;5.57;;;5.07;;
63217;SDS011;49314;48.278;16.378;2023-05-21T14:36:32;6.85;;;5.93;;
63217;SDS011;49314;48.278;16.378;2023-05-21T14:38:58;6.50;;;5.90;;